Time;durP1;ratioP1;P1;durP2;ratioP2;P2;SDS_P1;SDS_P2;PMS_P1;PMS_P2;Temp;Humidity;BMP_temperature;BMP_pressure;BME280_temperature;BME280_humidity;BME280_pressure;Samples;Min_cycle;Max_cycle;Signal;HPM_P1;HPM_P2
2022/07/10 00:00:07;;;;;;;31.77;30.07;;;17.40;99.90;;;;;;5031595;28;20285;-75
2022/07/10 00:02:33;;;;;;;43.90;41.57;;;17.40;99.90;;;;;;5031255;28;20288;-75
2022/07/10 00:04:59;;;;;;;49.77;47.17;;;17.40;99.90;;;;;;5031853;28;20191;-76
2022/07/10 00:07:25;;;;;;;47.70;45.07;;;17.40;99.90;;;;;;5029839;28;20197;-76
2022/07/10 00:09:51;;;;;;;52.40;49.63;;;17.40;99.90;;;;;;5031608;28;20179;-76
2022/07/10 00:12:17;;;;;;;28.80;27.23;;;17.40;99.90;;;;;;5031316;28;20190;-76
2022/07/10 00:14:42;;;;;;;50.00;47.40;;;17.30;99.90;;;;;;5030354;28;20183;-76
2022/07/10 00:17:08;;;;;;;43.87;41.27;;;17.30;99.90;;;;;;5030736;28;20202;-76
2022/07/10 00:19:34;;;;;;;52.17;49.43;;;17.20;99.90;;;;;;5032476;28;20186;-76
2022/07/10 00:22:00;;;;;;;44.43;42.10;;;17.20;99.90;;;;;;5032103;28;20206;-76
2022/07/10 00:24:25;;;;;;;47.17;44.63;;;17.10;99.90;;;;;;5031217;28;20215;-76
2022/07/10 00:26:51;;;;;;;46.33;43.93;;;17.10;99.90;;;;;;5035906;28;20175;-76
2022/07/10 00:29:17;;;;;;;50.30;47.40;;;17.00;99.90;;;;;;5049277;28;20665;-76
2022/07/10 00:31:43;;;;;;;41.40;39.03;;;17.00;99.90;;;;;;5073682;28;20194;-75
2022/07/10 00:34:08;;;;;;;47.57;44.97;;;17.00;99.90;;;;;;5054431;28;20778;-76
2022/07/10 00:36:34;;;;;;;43.93;41.63;;;17.00;99.90;;;;;;5048464;28;20182;-76
2022/07/10 00:39:00;;;;;;;35.53;33.50;;;16.90;99.90;;;;;;5049120;28;20599;-76
2022/07/10 00:41:26;;;;;;;37.63;35.63;;;16.90;99.90;;;;;;5050964;28;20586;-76
2022/07/10 00:43:53;;;;;;;34.63;32.63;;;16.90;99.90;;;;;;5050322;28;20229;-76
2022/07/10 00:46:22;;;;;;;43.47;41.17;;;16.80;99.90;;;;;;5061330;28;20182;-76
2022/07/10 00:48:48;;;;;;;33.47;31.57;;;16.80;99.90;;;;;;5050224;28;20204;-76
2022/07/10 00:51:16;;;;;;;26.80;25.30;;;16.80;99.90;;;;;;5050724;28;20174;-76
2022/07/10 00:53:44;;;;;;;31.33;29.43;;;16.80;99.90;;;;;;5050724;28;20197;-76
2022/07/10 00:56:11;;;;;;;49.27;46.40;;;16.80;99.90;;;;;;5050622;28;20178;-76
2022/07/10 00:58:39;;;;;;;51.47;48.40;;;16.80;99.90;;;;;;5047545;28;20271;-76
2022/07/10 01:01:06;;;;;;;46.40;43.67;;;16.80;99.90;;;;;;5030780;28;20214;-75
2022/07/10 01:03:32;;;;;;;50.23;47.63;;;16.80;99.90;;;;;;5030875;28;20301;-76
2022/07/10 01:05:58;;;;;;;61.90;58.60;;;16.60;99.90;;;;;;5031349;28;20194;-76
2022/07/10 01:08:25;;;;;;;54.17;51.10;;;16.60;99.90;;;;;;5029282;28;20650;-76
2022/07/10 01:10:51;;;;;;;53.67;50.73;;;16.50;99.90;;;;;;5031098;28;20175;-76
2022/07/10 01:13:17;;;;;;;38.73;36.63;;;16.50;99.90;;;;;;5030876;28;20578;-76
2022/07/10 01:15:45;;;;;;;35.30;33.27;;;16.40;99.90;;;;;;5029796;28;20175;-76
2022/07/10 01:18:11;;;;;;;32.40;30.27;;;16.30;99.90;;;;;;5030358;28;20647;-76
2022/07/10 01:20:37;;;;;;;30.43;28.73;;;16.30;99.90;;;;;;5032150;28;20182;-76
2022/07/10 01:23:03;;;;;;;27.47;25.80;;;16.30;99.90;;;;;;5030773;28;20690;-76
2022/07/10 01:25:28;;;;;;;19.73;18.17;;;16.30;99.90;;;;;;5030909;28;20187;-76
2022/07/10 01:27:55;;;;;;;25.63;24.30;;;16.30;99.90;;;;;;5042753;28;20228;-76
2022/07/10 01:30:21;;;;;;;27.07;25.40;;;16.20;99.90;;;;;;5053897;28;20181;-76
2022/07/10 01:32:47;;;;;;;28.47;26.20;;;16.10;99.90;;;;;;5051235;28;20206;-76
2022/07/10 01:35:13;;;;;;;17.87;16.70;;;16.00;99.90;;;;;;5050815;28;20674;-76
2022/07/10 01:37:40;;;;;;;14.57;13.33;;;16.00;99.90;;;;;;5059383;28;20183;-75
2022/07/10 01:40:07;;;;;;;14.13;12.90;;;15.90;99.90;;;;;;5051726;28;20189;-75
2022/07/10 01:42:33;;;;;;;12.23;11.20;;;15.90;99.90;;;;;;5076580;28;20252;-75
2022/07/10 01:44:59;;;;;;;12.83;11.80;;;15.80;99.90;;;;;;5059386;28;20178;-76
2022/07/10 01:47:27;;;;;;;12.70;11.70;;;15.80;99.90;;;;;;5045054;28;20175;-75
2022/07/10 01:49:53;;;;;;;13.03;11.73;;;15.70;99.90;;;;;;5036678;28;20175;-75
2022/07/10 01:52:21;;;;;;;12.93;11.70;;;15.70;99.90;;;;;;5034744;28;20297;-75
2022/07/10 01:54:48;;;;;;;17.37;16.23;;;15.60;99.90;;;;;;5035114;28;20314;-75
2022/07/10 01:57:14;;;;;;;17.97;16.47;;;15.60;99.90;;;;;;5041083;28;20236;-75
2022/07/10 01:59:40;;;;;;;18.37;17.10;;;15.50;99.90;;;;;;5054095;28;20219;-76
2022/07/10 02:02:07;;;;;;;18.37;17.13;;;15.50;99.90;;;;;;5063894;23;20601;-75
2022/07/10 02:04:42;;;;;;;14.73;13.07;;;15.40;99.90;;;;;;5023282;28;20298;-74
2022/07/10 02:07:17;;;;;;;15.77;14.27;;;15.30;99.90;;;;;;5015738;28;20249;-75
2022/07/10 02:09:43;;;;;;;20.37;18.93;;;15.30;99.90;;;;;;5032753;28;20273;-75
2022/07/10 02:12:11;;;;;;;19.10;17.63;;;15.30;99.90;;;;;;5030442;28;20250;-75
2022/07/10 02:14:37;;;;;;;21.10;19.53;;;15.30;99.90;;;;;;4996812;28;20275;-75
2022/07/10 02:17:07;;;;;;;20.80;19.13;;;15.30;99.90;;;;;;5013434;28;20184;-75
2022/07/10 02:19:33;;;;;;;31.83;29.23;;;15.30;99.90;;;;;;5014294;28;20233;-75
2022/07/10 02:22:00;;;;;;;17.83;16.63;;;15.40;99.90;;;;;;4998013;28;20208;-75
2022/07/10 02:24:26;;;;;;;12.87;11.83;;;15.40;99.90;;;;;;5033755;28;20214;-75
2022/07/10 02:26:52;;;;;;;9.17;8.30;;;15.50;99.90;;;;;;5015355;28;20203;-75
2022/07/10 02:29:19;;;;;;;9.97;9.13;;;15.50;99.90;;;;;;5015864;28;20202;-75
2022/07/10 02:31:45;;;;;;;13.80;12.70;;;15.60;99.90;;;;;;5015952;28;20667;-74
2022/07/10 02:34:12;;;;;;;15.50;14.20;;;15.60;99.90;;;;;;5012235;28;20183;-75
2022/07/10 02:36:38;;;;;;;22.77;21.13;;;15.60;99.90;;;;;;5033531;28;20176;-75
2022/07/10 02:39:06;;;;;;;20.43;19.20;;;15.60;99.90;;;;;;5031618;28;20190;-75
2022/07/10 02:41:32;;;;;;;16.90;15.70;;;15.70;99.90;;;;;;5001174;28;20187;-77
2022/07/10 02:43:58;;;;;;;23.27;21.67;;;15.70;99.90;;;;;;4996079;28;20222;-75
2022/07/10 02:46:25;;;;;;;18.73;17.67;;;15.80;99.90;;;;;;5013542;28;20613;-74
2022/07/10 02:48:51;;;;;;;26.03;24.30;;;15.80;99.90;;;;;;4995528;28;20234;-74
2022/07/10 02:51:17;;;;;;;17.97;16.87;;;15.90;99.90;;;;;;5025677;28;20651;-74
2022/07/10 02:53:43;;;;;;;24.63;22.93;;;15.90;99.90;;;;;;5015006;28;20203;-77
2022/07/10 02:56:09;;;;;;;20.67;19.00;;;15.90;99.90;;;;;;5015623;28;20183;-74
2022/07/10 02:58:34;;;;;;;55.43;52.23;;;15.90;99.90;;;;;;5014610;28;20190;-75
2022/07/10 03:01:00;;;;;;;57.77;54.67;;;15.90;99.90;;;;;;5027628;28;20183;-75
2022/07/10 03:03:26;;;;;;;36.67;34.67;;;15.80;99.90;;;;;;5027730;28;20215;-76
2022/07/10 03:05:52;;;;;;;28.10;26.53;;;15.80;99.90;;;;;;4995886;28;20318;-73
2022/07/10 03:08:18;;;;;;;53.77;50.77;;;15.80;99.90;;;;;;4994643;28;20270;-75
2022/07/10 03:10:44;;;;;;;58.13;54.73;;;15.80;99.90;;;;;;5012989;28;20180;-75
2022/07/10 03:13:10;;;;;;;64.03;60.53;;;15.80;99.90;;;;;;4996554;28;20200;-74
2022/07/10 03:15:36;;;;;;;64.63;60.83;;;15.70;99.90;;;;;;4995718;28;20184;-75
2022/07/10 03:18:02;;;;;;;40.90;38.07;;;15.70;99.90;;;;;;5012168;28;20191;-75
2022/07/10 03:20:28;;;;;;;32.87;30.47;;;15.70;99.90;;;;;;5013205;28;20194;-75
2022/07/10 03:22:54;;;;;;;28.57;26.70;;;15.60;99.90;;;;;;4995209;28;20306;-75
2022/07/10 03:25:20;;;;;;;40.37;37.43;;;15.60;99.90;;;;;;5012815;28;20644;-75
2022/07/10 03:27:46;;;;;;;51.80;48.80;;;15.50;99.90;;;;;;5025440;28;20179;-75
2022/07/10 03:30:12;;;;;;;48.80;46.00;;;15.50;99.90;;;;;;5032408;28;20600;-74
2022/07/10 03:32:37;;;;;;;28.83;26.80;;;15.40;99.90;;;;;;5032271;28;20211;-75
2022/07/10 03:35:04;;;;;;;28.03;25.70;;;15.30;99.90;;;;;;5014835;28;20183;-74
2022/07/10 03:37:30;;;;;;;15.60;12.93;;;15.30;99.90;;;;;;5031242;28;20187;-75
2022/07/10 03:39:56;;;;;;;14.83;13.27;;;15.20;99.90;;;;;;5029135;28;20178;-75
2022/07/10 03:42:21;;;;;;;21.57;11.90;;;15.20;99.90;;;;;;5013630;28;20552;-74
2022/07/10 03:44:48;;;;;;;14.87;13.53;;;15.20;99.90;;;;;;5032141;28;20210;-75
2022/07/10 03:47:14;;;;;;;25.73;22.93;;;15.20;99.90;;;;;;5031335;28;20213;-75
2022/07/10 03:49:41;;;;;;;24.60;22.30;;;15.10;99.90;;;;;;5032206;28;20202;-76
2022/07/10 03:52:07;;;;;;;26.03;24.07;;;15.10;99.90;;;;;;5031877;28;20207;-76
2022/07/10 03:54:33;;;;;;;24.13;22.37;;;15.10;99.90;;;;;;5031927;28;20175;-75
2022/07/10 03:59:44;;;;;;;12.13;11.13;;;15.00;99.90;;;;;;5032244;28;20727;-76
2022/07/10 04:02:09;;;;;;;21.83;19.87;;;15.00;99.90;;;;;;5014004;28;20214;-76
2022/07/10 04:04:35;;;;;;;25.77;23.93;;;15.00;99.90;;;;;;5030997;28;20207;-76
2022/07/10 04:07:04;;;;;;;24.27;22.80;;;15.00;99.90;;;;;;5014906;28;20353;-73
2022/07/10 04:09:31;;;;;;;34.93;32.80;;;15.00;99.90;;;;;;5016653;28;20188;-74
2022/07/10 04:11:57;;;;;;;38.93;36.57;;;15.00;99.90;;;;;;5012166;28;20196;-71
2022/07/10 04:14:23;;;;;;;39.13;36.50;;;15.10;99.90;;;;;;5012854;28;20186;-71
2022/07/10 04:16:49;;;;;;;27.43;25.17;;;15.10;99.90;;;;;;5030060;28;20183;-71
2022/07/10 04:19:15;;;;;;;29.00;26.97;;;15.20;99.90;;;;;;5031163;28;20667;-71
2022/07/10 04:21:41;;;;;;;34.67;32.33;;;15.20;99.90;;;;;;5031275;28;20684;-71
2022/07/10 04:24:07;;;;;;;37.30;34.70;;;15.20;99.90;;;;;;5030456;28;20210;-71
2022/07/10 04:26:33;;;;;;;35.33;32.53;;;15.20;99.90;;;;;;5030193;28;20575;-72
2022/07/10 04:28:59;;;;;;;11.53;10.40;;;15.20;99.90;;;;;;5010071;28;20270;-71
2022/07/10 04:31:25;;;;;;;11.27;10.13;;;15.30;99.90;;;;;;5010748;28;20334;-72
2022/07/10 04:33:51;;;;;;;14.80;13.70;;;15.30;99.90;;;;;;5010923;28;20186;-71
2022/07/10 04:36:16;;;;;;;15.83;11.20;;;15.30;99.90;;;;;;5009266;28;20274;-71
2022/07/10 04:38:43;;;;;;;15.40;14.23;;;15.40;99.90;;;;;;5009267;28;20206;-74
2022/07/10 04:41:09;;;;;;;15.33;14.03;;;15.30;99.90;;;;;;5011554;28;20187;-72
2022/07/10 04:43:35;;;;;;;12.63;11.30;;;15.30;99.90;;;;;;5010900;28;20212;-71
2022/07/10 04:46:01;;;;;;;16.63;15.23;;;15.40;99.90;;;;;;5010289;28;20641;-72
2022/07/10 04:48:27;;;;;;;17.93;16.83;;;15.50;99.90;;;;;;5010375;28;20172;-71
2022/07/10 04:50:52;;;;;;;14.43;13.23;;;15.70;99.90;;;;;;5011089;28;20171;-71
2022/07/10 04:53:18;;;;;;;54.13;51.13;;;15.80;99.90;;;;;;5010437;28;20295;-71
2022/07/10 04:55:45;;;;;;;55.33;52.23;;;16.00;99.90;;;;;;5011108;28;20274;-71
2022/07/10 04:58:11;;;;;;;43.03;40.63;;;16.00;99.90;;;;;;4992728;28;20186;-72
2022/07/10 05:00:37;;;;;;;21.23;19.83;;;16.00;99.90;;;;;;5010326;28;20557;-71
2022/07/10 05:03:02;;;;;;;34.77;32.13;;;16.10;99.90;;;;;;4994300;28;20663;-71
2022/07/10 05:05:28;;;;;;;73.67;69.83;;;16.20;99.90;;;;;;5030809;28;20206;-72
2022/07/10 05:07:55;;;;;;;64.37;60.67;;;16.30;99.90;;;;;;5029290;28;20283;-71
2022/07/10 05:10:20;;;;;;;43.57;41.13;;;16.30;99.90;;;;;;5030621;28;20183;-72
2022/07/10 05:12:46;;;;;;;34.83;32.93;;;16.40;99.90;;;;;;5013112;28;20268;-72
2022/07/10 05:15:12;;;;;;;86.27;81.83;;;16.50;99.90;;;;;;5030670;28;20201;-72
2022/07/10 05:17:38;;;;;;;250.77;237.97;;;16.50;99.90;;;;;;5033904;28;20190;-73
2022/07/10 05:20:05;;;;;;;259.00;246.10;;;16.60;99.90;;;;;;5017049;28;20663;-71
2022/07/10 05:22:31;;;;;;;69.00;65.40;;;16.70;99.90;;;;;;5016323;28;20350;-71
2022/07/10 05:24:57;;;;;;;15.57;14.03;;;16.70;99.90;;;;;;5034479;28;20770;-72
2022/07/10 05:27:22;;;;;;;8.60;7.90;;;16.80;99.90;;;;;;5033789;28;20198;-71
2022/07/10 05:29:48;;;;;;;10.03;9.13;;;16.80;99.90;;;;;;5015830;28;20179;-71
2022/07/10 05:32:14;;;;;;;9.23;8.53;;;16.90;99.90;;;;;;5016792;28;20702;-72
2022/07/10 05:34:41;;;;;;;9.67;8.97;;;17.00;99.90;;;;;;5034279;28;20183;-72
2022/07/10 05:37:07;;;;;;;10.10;9.47;;;17.20;99.90;;;;;;5032930;28;20206;-72
2022/07/10 05:39:32;;;;;;;9.67;8.87;;;17.30;99.90;;;;;;5034113;28;20725;-72
2022/07/10 05:41:58;;;;;;;16.17;15.20;;;17.70;99.90;;;;;;5016564;28;20253;-72
2022/07/10 05:44:24;;;;;;;48.50;46.10;;;18.00;99.90;;;;;;5033831;28;20338;-72
2022/07/10 05:46:50;;;;;;;55.50;52.50;;;18.20;99.90;;;;;;5016019;28;20209;-72
2022/07/10 05:49:16;;;;;;;56.60;53.57;;;18.50;99.90;;;;;;5034425;28;20791;-72
2022/07/10 05:51:42;;;;;;;64.13;60.73;;;18.40;99.90;;;;;;5033863;28;20260;-73
2022/07/10 05:54:08;;;;;;;54.00;51.27;;;18.50;99.90;;;;;;5033596;28;20179;-72
2022/07/10 05:56:34;;;;;;;53.27;50.57;;;18.40;99.90;;;;;;5034030;28;20570;-71
2022/07/10 05:59:00;;;;;;;44.03;41.50;;;18.50;99.90;;;;;;5033208;28;20187;-72
2022/07/10 06:01:27;;;;;;;61.57;58.37;;;18.70;99.90;;;;;;5033050;28;20237;-72
2022/07/10 06:03:53;;;;;;;76.40;72.43;;;18.60;99.90;;;;;;5025752;28;20226;-72
2022/07/10 06:06:19;;;;;;;42.83;40.63;;;18.30;99.90;;;;;;5013950;28;20188;-72
2022/07/10 06:08:45;;;;;;;36.27;34.23;;;18.10;99.90;;;;;;5012386;28;20773;-71
2022/07/10 06:11:11;;;;;;;45.37;42.90;;;18.00;99.90;;;;;;5013801;28;20629;-72
2022/07/10 06:13:38;;;;;;;70.47;66.77;;;17.90;99.90;;;;;;4996216;28;20681;-72
2022/07/10 06:16:05;;;;;;;45.03;42.70;;;17.90;99.90;;;;;;5012961;28;20253;-71
2022/07/10 06:18:34;;;;;;;31.50;29.57;;;17.80;99.90;;;;;;5012972;28;20184;-72
2022/07/10 06:20:59;;;;;;;18.17;17.20;;;17.60;99.90;;;;;;5013611;28;20188;-71
2022/07/10 06:23:25;;;;;;;30.27;28.27;;;17.50;99.90;;;;;;5012900;28;20764;-71
2022/07/10 06:25:51;;;;;;;56.97;54.00;;;17.30;99.90;;;;;;5013605;28;20266;-72
2022/07/10 06:28:17;;;;;;;64.37;61.00;;;17.10;99.90;;;;;;5011756;28;20540;-72
2022/07/10 06:30:44;;;;;;;27.63;26.17;;;17.10;99.90;;;;;;5012378;28;20184;-72
2022/07/10 06:33:10;;;;;;;16.37;15.13;;;17.10;99.90;;;;;;5016388;28;20683;-72
2022/07/10 06:35:36;;;;;;;37.13;34.73;;;17.20;99.90;;;;;;5014040;28;20195;-72
2022/07/10 06:38:02;;;;;;;22.67;21.30;;;17.40;99.90;;;;;;5011769;28;20175;-73
2022/07/10 06:40:36;;;;;;;36.63;34.63;;;17.50;99.90;;;;;;5013546;28;20207;-73
2022/07/10 06:43:02;;;;;;;45.10;42.60;;;18.40;99.90;;;;;;5020305;28;20620;-75
2022/07/10 06:45:28;;;;;;;57.50;54.57;;;19.80;99.90;;;;;;5015250;28;20175;-73
2022/07/10 06:47:58;;;;;;;8.07;7.57;;;20.90;99.90;;;;;;5031976;28;20567;-73
2022/07/10 06:50:26;;;;;;;16.23;15.30;;;21.50;99.90;;;;;;5015394;28;20183;-73
2022/07/10 06:52:53;;;;;;;6.43;5.93;;;21.50;99.90;;;;;;5026232;28;20195;-73
2022/07/10 06:55:19;;;;;;;8.57;7.88;;;21.10;99.90;;;;;;5013120;28;20212;-73
2022/07/10 06:57:45;;;;;;;10.00;9.40;;;20.60;99.90;;;;;;5012065;28;20175;-73
2022/07/10 07:00:11;;;;;;;9.30;8.60;;;19.80;99.90;;;;;;5012586;28;20282;-73
2022/07/10 07:02:37;;;;;;;6.03;5.43;;;19.30;99.90;;;;;;4997361;28;20302;-73
2022/07/10 07:05:05;;;;;;;4.80;4.17;;;19.00;99.90;;;;;;5031906;28;20186;-73
2022/07/10 07:07:30;;;;;;;7.97;4.27;;;18.90;99.90;;;;;;4994755;28;20183;-73
2022/07/10 07:09:57;;;;;;;4.97;4.30;;;18.90;99.90;;;;;;5012688;28;20623;-73
2022/07/10 07:12:23;;;;;;;5.00;4.70;;;19.00;99.90;;;;;;5012530;28;20274;-74
2022/07/10 07:14:49;;;;;;;5.40;4.97;;;19.30;99.90;;;;;;5032176;28;20182;-73
2022/07/10 07:17:21;;;;;;;7.07;6.47;;;19.60;99.90;;;;;;5013934;28;20754;-73
2022/07/10 07:25:17;;;;;;;7.47;7.07;;;20.70;99.90;;;;;;5012827;28;20192;-73
2022/07/10 07:27:43;;;;;;;7.40;7.00;;;21.30;99.90;;;;;;5011611;28;20195;-75
2022/07/10 07:30:11;;;;;;;14.15;13.13;;;21.90;99.90;;;;;;5011812;28;20648;-70
2022/07/10 07:32:38;;;;;;;23.25;21.85;;;23.00;99.90;;;;;;5013545;28;20668;-76
2022/07/10 07:35:05;;;;;;;7.80;7.20;;;23.50;99.90;;;;;;5031599;28;20202;-74
2022/07/10 07:37:39;;;;;;;8.25;5.13;;;23.50;99.90;;;;;;5030232;28;20264;-74
2022/07/10 07:40:08;;;;;;;7.68;7.03;;;22.50;99.90;;;;;;5032053;28;20182;-74
2022/07/10 07:42:34;;;;;;;6.15;5.25;;;22.40;99.90;;;;;;5013285;28;20224;-75
2022/07/10 07:45:00;;;;;;;5.03;4.57;;;22.70;99.90;;;;;;5030696;28;20209;-75
2022/07/10 07:47:27;;;;;;;5.65;5.35;;;22.80;99.90;;;;;;5029808;28;20171;-75
2022/07/10 07:49:53;;;;;;;6.32;5.93;;;22.40;99.90;;;;;;5011004;28;20179;-74
2022/07/10 07:52:19;;;;;;;10.63;9.88;;;23.00;99.90;;;;;;5031141;28;20241;-74
2022/07/10 07:54:45;;;;;;;7.13;6.80;;;23.30;99.90;;;;;;5013277;28;20183;-75
2022/07/10 07:57:11;;;;;;;8.05;7.63;;;22.40;99.90;;;;;;5011292;28;20718;-76
2022/07/10 07:59:37;;;;;;;4.88;4.47;;;21.80;99.90;;;;;;4994638;28;20214;-75
2022/07/10 08:02:03;;;;;;;8.05;7.63;;;21.60;99.90;;;;;;5012338;28;20219;-74
2022/07/10 08:04:29;;;;;;;10.65;10.02;;;21.50;99.90;;;;;;5027387;28;20368;-74
2022/07/10 08:06:54;;;;;;;14.15;13.18;;;21.20;99.90;;;;;;5012491;28;20270;-73
2022/07/10 08:09:21;;;;;;;24.42;23.02;;;20.70;99.90;;;;;;5015771;28;20207;-74
2022/07/10 08:11:47;;;;;;;40.60;38.50;;;20.50;99.90;;;;;;5010543;28;20242;-76
2022/07/10 08:14:14;;;;;;;31.77;30.08;;;20.70;99.90;;;;;;5017743;28;20194;-75
2022/07/10 08:16:41;;;;;;;33.17;31.38;;;21.00;99.90;;;;;;5011956;28;20187;-76
2022/07/10 08:19:07;;;;;;;33.83;31.93;;;21.00;99.90;;;;;;5011243;28;20279;-75
2022/07/10 08:21:34;;;;;;;36.13;34.25;;;20.70;99.90;;;;;;5010725;28;20267;-74
2022/07/10 08:24:01;;;;;;;31.77;30.10;;;20.50;99.90;;;;;;5011398;28;20211;-75
2022/07/10 08:26:27;;;;;;;15.55;14.50;;;20.10;99.90;;;;;;4994244;28;20602;-75
2022/07/10 08:28:53;;;;;;;13.47;12.70;;;19.80;99.90;;;;;;4991888;28;20184;-77
2022/07/10 08:31:19;;;;;;;13.30;12.40;;;19.70;99.90;;;;;;5010370;28;20191;-77
2022/07/10 08:33:45;;;;;;;12.73;11.83;;;19.80;99.90;;;;;;4993908;28;20587;-78
2022/07/10 08:36:11;;;;;;;18.80;17.90;;;20.20;99.90;;;;;;5011280;28;20180;-78
2022/07/10 08:38:37;;;;;;;26.23;24.37;;;21.10;99.90;;;;;;5015225;28;20214;-77
2022/07/10 08:41:05;;;;;;;6.43;5.93;;;21.90;99.90;;;;;;4999354;28;20270;-77
2022/07/10 08:43:32;;;;;;;4.20;4.00;;;22.10;99.90;;;;;;5022238;28;20207;-78
2022/07/10 08:45:59;;;;;;;5.82;5.53;;;22.20;99.90;;;;;;5014906;28;20194;-76
2022/07/10 08:48:25;;;;;;;7.40;6.22;;;22.30;99.90;;;;;;4997932;28;20206;-77
2022/07/10 08:50:55;;;;;;;8.32;7.70;;;22.40;99.90;;;;;;5032008;28;20179;-78
2022/07/10 08:53:30;;;;;;;7.88;7.43;;;22.60;99.90;;;;;;5025944;28;20203;-80
2022/07/10 08:55:57;;;;;;;6.20;5.90;;;22.90;98.80;;;;;;5013028;28;20185;-78
2022/07/10 08:58:23;;;;;;;7.00;6.47;;;23.40;98.80;;;;;;5018965;28;20644;-76
2022/07/10 09:00:50;;;;;;;6.85;6.20;;;23.40;97.90;;;;;;4994068;28;20188;-77
2022/07/10 09:03:16;;;;;;;8.38;7.72;;;23.60;98.10;;;;;;5015513;28;20593;-77
2022/07/10 09:05:43;;;;;;;9.35;8.82;;;24.00;96.00;;;;;;5014644;28;20207;-76
2022/07/10 09:08:28;;;;;;;9.23;8.63;;;23.90;96.80;;;;;;5031897;28;20171;-80
2022/07/10 09:11:14;;;;;;;9.20;8.73;;;24.10;96.80;;;;;;5032868;28;20194;-77
2022/07/10 09:13:53;;;;;;;13.00;12.10;;;24.00;95.50;;;;;;5013064;28;20202;-78
2022/07/10 09:16:28;;;;;;;6.32;5.78;;;24.60;96.00;;;;;;5012633;28;20184;-76
2022/07/10 09:18:54;;;;;;;6.70;6.05;;;24.90;94.80;;;;;;4992863;28;20187;-77
2022/07/10 09:21:21;;;;;;;7.38;6.75;;;24.50;94.40;;;;;;5011245;28;20237;-77
2022/07/10 09:23:48;;;;;;;16.38;15.40;;;24.70;94.50;;;;;;5002903;28;20223;-77
2022/07/10 09:26:15;;;;;;;11.73;11.13;;;25.20;92.90;;;;;;5032095;28;20568;-77
2022/07/10 09:28:42;;;;;;;16.77;15.77;;;25.10;92.40;;;;;;5031252;28;20175;-78
2022/07/10 09:31:07;;;;;;;11.70;11.00;;;23.70;92.90;;;;;;5015178;28;20175;-78
2022/07/10 09:33:35;;;;;;;12.02;11.25;;;22.90;94.40;;;;;;5024984;28;20227;-76
2022/07/10 09:36:08;;;;;;;11.25;10.65;;;22.60;95.40;;;;;;4993830;28;20180;-76
2022/07/10 09:38:42;;;;;;;10.20;9.43;;;23.00;94.30;;;;;;5010268;28;20192;-76
2022/07/10 09:41:14;;;;;;;7.72;7.20;;;23.40;93.80;;;;;;5011072;28;20731;-77
2022/07/10 09:43:48;;;;;;;18.42;17.23;;;24.10;93.50;;;;;;5013799;28;20207;-76
2022/07/10 09:46:15;;;;;;;18.40;17.35;;;24.40;91.40;;;;;;5010846;28;20215;-76
2022/07/10 09:48:41;;;;;;;16.13;15.32;;;24.40;90.80;;;;;;5010002;28;20191;-76
2022/07/10 09:51:09;;;;;;;16.35;15.45;;;24.50;91.20;;;;;;5010942;28;20267;-76
2022/07/10 09:53:43;;;;;;;11.55;10.68;;;24.30;91.30;;;;;;5009861;28;20206;-77
2022/07/10 09:56:11;;;;;;;9.35;8.77;;;24.20;90.20;;;;;;5030819;28;20214;-76
2022/07/10 09:58:38;;;;;;;5.25;4.80;;;24.70;91.70;;;;;;5011944;28;20182;-76
2022/07/10 10:01:06;;;;;;;5.45;4.47;;;24.60;90.00;;;;;;5012992;28;20694;-76
2022/07/10 10:03:37;;;;;;;17.67;16.67;;;23.60;90.20;;;;;;5014098;28;20251;-78
2022/07/10 10:06:15;;;;;;;6.85;6.45;;;22.70;92.10;;;;;;4997463;28;20179;-76
2022/07/10 10:08:57;;;;;;;16.00;15.00;;;22.00;93.20;;;;;;4996024;28;20191;-76
2022/07/10 10:11:27;;;;;;;13.05;12.45;;;21.60;94.10;;;;;;4997179;28;20195;-76
2022/07/10 10:13:53;;;;;;;13.05;12.18;;;21.60;92.70;;;;;;5016051;28;20245;-76
2022/07/10 10:16:20;;;;;;;13.43;12.48;;;22.20;92.80;;;;;;5034206;28;20655;-77
2022/07/10 10:21:33;;;;;;;18.83;17.80;;;24.00;88.90;;;;;;5032833;28;20205;-76
2022/07/10 10:24:01;;;;;;;24.95;23.65;;;23.80;88.10;;;;;;5015476;28;20675;-76
2022/07/10 10:26:27;;;;;;;21.58;20.33;;;23.10;90.20;;;;;;4997262;28;20183;-76
2022/07/10 10:28:54;;;;;;;26.85;25.33;;;22.80;90.70;;;;;;5004220;28;20198;-77
2022/07/10 10:31:24;;;;;;;18.42;16.95;;;23.50;90.20;;;;;;4999916;28;20369;-74
2022/07/10 10:33:55;;;;;;;21.73;20.00;;;23.40;88.60;;;;;;4994102;28;20649;-76
2022/07/10 10:36:45;;;;;;;10.82;9.95;;;22.70;89.50;;;;;;4994283;28;20184;-76
2022/07/10 10:39:13;;;;;;;20.40;19.38;;;22.60;91.10;;;;;;4972961;28;20252;-76
2022/07/10 10:41:40;;;;;;;7.15;6.80;;;23.70;88.70;;;;;;4997464;28;20188;-76
2022/07/10 10:44:10;;;;;;;4.85;4.07;;;24.50;84.30;;;;;;5013633;28;20208;-76
2022/07/10 10:46:56;;;;;;;3.40;3.20;;;24.40;82.90;;;;;;5013570;28;20322;-76
2022/07/10 10:49:24;;;;;;;4.20;3.80;;;24.00;82.40;;;;;;5014491;28;20182;-76
2022/07/10 10:52:01;;;;;;;5.05;4.35;;;23.50;84.70;;;;;;5030037;28;20672;-76
2022/07/10 10:54:51;;;;;;;12.95;12.25;;;22.70;85.80;;;;;;5015763;28;20193;-78
2022/07/10 10:57:18;;;;;;;26.50;25.13;;;22.30;89.90;;;;;;5015285;28;20190;-78
2022/07/10 11:00:07;;;;;;;24.67;23.35;;;22.40;90.00;;;;;;5035270;28;20281;-76
2022/07/10 11:02:40;;;;;;;25.10;23.60;;;22.50;86.50;;;;;;4976483;28;20216;-78
2022/07/10 11:05:13;;;;;;;3.85;3.65;;;23.60;86.30;;;;;;4994474;28;20187;-77
2022/07/10 11:07:54;;;;;;;3.50;3.20;;;24.80;80.30;;;;;;4992952;28;20725;-75
2022/07/10 11:10:59;;;;;;;3.95;3.65;;;25.40;77.80;;;;;;5001724;28;20240;-78
2022/07/10 11:13:29;;;;;;;3.30;3.10;;;25.50;78.70;;;;;;5021220;28;20559;-77
2022/07/10 11:15:57;;;;;;;5.80;3.15;;;24.50;79.70;;;;;;5015702;28;20205;-76
2022/07/10 11:18:25;;;;;;;3.88;3.30;;;23.40;81.60;;;;;;5032404;28;20186;-78
2022/07/10 11:20:53;;;;;;;4.05;3.78;;;22.70;84.40;;;;;;5012299;28;20547;-76
2022/07/10 11:23:52;;;;;;;26.15;24.85;;;22.10;85.70;;;;;;5021245;28;20702;-77
2022/07/10 11:26:41;;;;;;;4.13;3.72;;;22.40;89.00;;;;;;5016269;28;20233;-79
2022/07/10 11:29:07;;;;;;;3.30;3.00;;;24.20;81.00;;;;;;5015168;28;20226;-78
2022/07/10 11:31:39;;;;;;;4.22;3.47;;;25.90;78.90;;;;;;4998500;28;20175;-76
2022/07/10 11:34:05;;;;;;;4.97;2.92;;;25.90;74.20;;;;;;4994987;28;20808;-77
2022/07/10 11:36:34;;;;;;;3.78;3.58;;;25.10;75.00;;;;;;4992827;28;20208;-77
2022/07/10 11:39:02;;;;;;;3.33;2.95;;;23.90;78.20;;;;;;5029644;28;20214;-76
2022/07/10 11:41:28;;;;;;;3.90;3.30;;;23.10;79.50;;;;;;5018690;28;20644;-77
2022/07/10 11:44:00;;;;;;;3.67;3.47;;;22.50;81.20;;;;;;5023635;28;20211;-76
2022/07/10 11:46:28;;;;;;;3.30;3.08;;;23.60;81.00;;;;;;5018806;28;20536;-78
2022/07/10 11:48:58;;;;;;;3.30;3.08;;;25.50;76.20;;;;;;5031110;28;20237;-76
2022/07/10 11:51:32;;;;;;;3.63;3.42;;;26.30;72.40;;;;;;5019999;28;20217;-77
2022/07/10 11:54:05;;;;;;;5.38;4.90;;;25.70;71.20;;;;;;5011877;28;20226;-76
2022/07/10 11:56:36;;;;;;;15.98;12.60;;;24.30;75.20;;;;;;5012028;28;20179;-76
2022/07/10 11:59:04;;;;;;;15.27;12.95;;;23.40;77.80;;;;;;5011392;28;20187;-77
2022/07/10 12:01:35;;;;;;;10.48;9.32;;;23.50;79.50;;;;;;4992091;28;71907;-76
2022/07/10 12:04:05;;;;;;;5.07;4.78;;;24.70;78.30;;;;;;4993145;28;20232;-77
2022/07/10 12:06:33;;;;;;;8.93;6.80;;;25.10;73.20;;;;;;4983600;28;20276;-75
2022/07/10 12:09:07;;;;;;;6.25;5.72;;;24.40;75.40;;;;;;4953174;28;20815;-74
2022/07/10 12:11:34;;;;;;;3.88;3.58;;;24.60;75.60;;;;;;4984284;28;20282;-75
2022/07/10 12:14:09;;;;;;;3.92;3.10;;;24.10;75.30;;;;;;4974817;28;20195;-74
2022/07/10 12:16:36;;;;;;;4.47;4.10;;;23.70;76.60;;;;;;4992489;28;20219;-76
2022/07/10 12:19:03;;;;;;;3.53;3.33;;;24.00;78.60;;;;;;4992327;28;20234;-73
2022/07/10 12:21:29;;;;;;;4.13;3.70;;;24.10;75.40;;;;;;4974860;28;20673;-72
2022/07/10 12:23:56;;;;;;;3.05;2.85;;;23.80;76.00;;;;;;4972656;28;20581;-73
2022/07/10 12:26:34;;;;;;;3.80;3.50;;;23.90;75.60;;;;;;4971907;28;20212;-74
2022/07/10 12:29:01;;;;;;;3.65;3.35;;;23.60;75.30;;;;;;4971739;28;20803;-72
2022/07/10 12:31:31;;;;;;;3.20;3.10;;;23.30;77.90;;;;;;4955367;28;20184;-73
2022/07/10 12:34:02;;;;;;;3.40;3.20;;;24.10;77.00;;;;;;4972301;28;20184;-74
2022/07/10 12:36:45;;;;;;;3.30;3.10;;;25.80;74.50;;;;;;4955435;28;20191;-74
2022/07/10 12:39:12;;;;;;;7.53;7.07;;;27.70;71.10;;;;;;4972022;28;20184;-74
2022/07/10 12:41:58;;;;;;;3.95;3.60;;;28.50;66.20;;;;;;4974454;28;20189;-73
2022/07/10 12:44:41;;;;;;;7.15;6.68;;;27.60;63.10;;;;;;4954946;28;20216;-73
2022/07/10 12:47:21;;;;;;;5.47;5.18;;;27.70;66.10;;;;;;4971378;28;20790;-73